Tyler, TX (75703)

3:36 PM CDT on May 23, 2017 (GMT -0500)
Tyler | | Change Station
Active Advisory: Severe Thunderstorm Watch

Elev 0 ft 32.26 °N, 95.32 °W | Updated 3 minutes ago

Overcast
Overcast
77.5 °F
Feels Like 79 °F
N
5.0
Wind Variable Wind from South
Gusts 11.8 mph

Today
High -- | Low -- °F
--% Chance of Precip.
Yesterday
High -- | Low -- °F
Precip. -- in
Pressure 29.81 in
Visibility 10.0 miles
Clouds Mostly Cloudy 3500 ft
Mostly Cloudy 5000 ft
Mostly Cloudy 6000 ft
Heat Index 79 °F
Dew Point 66 °F
Humidity 66%
Rainfall 0.00 in
Snow Depth Not available.
6:18 AM 8:17 PM
Waning Crescent, 6% visible
METAR KTYR 231953Z 30007KT 10SM BKN035 BKN050 BKN060 25/16 A2982 RMK AO2 SLP092 T02500161
Pressure 29.81 in
Visibility 10.0 miles
Clouds Mostly Cloudy 3500 ft
Mostly Cloudy 5000 ft
Mostly Cloudy 6000 ft
Heat Index 79 °F
Dew Point 66 °F
Humidity 66%
Rainfall 0.00 in
Snow Depth Not available.
6:18 AM 8:17 PM
Waning Crescent, 6% visible
METAR KTYR 231953Z 30007KT 10SM BKN035 BKN050 BKN060 25/16 A2982 RMK AO2 SLP092 T02500161

Get Your Daily Forecast Email!

Thanks for signing up!

Be on the lookout for a verification email in your inbox.

You'll start receiving severe weather alerts in your inbox..

×

10-Day Weather Forecast

Almanac

Astronomy

May. 23, 2017 Rise Set
Actual Time
Civil Twilight
Nautical Twilight
Astronomical Twilight
Moon
Length of Visible Light
Length of Day
Tomorrow will be .
, % of the Moon is Illuminated

Today's Extremes

State Highs State Lows

Community

WunderPhotos

Category 6

Welcome to Category 6. This is the collective home for Weather Underground's featured writeups by Dr. Jeff Masters (right), Bob Henson (left), Chris Burt, and other regular contributors.

Nearby

Air Quality

  Air Quality AQ Index Pollutant
Not available.

Snow Depth

Station Depth Elevation

Earthquake Activity

City Distance Mag. Time & Date
Minimum magnitude displayed is 2.5.

Coastal Water Temperatures

Place Temperature

Stations

Nearby Weather Stations

Station Location Temp. Windchill Dew Point Humidity Wind Precip. Elev Updated Type
                   

Watches & Warnings

Severe Thunderstorm Watch
Issued: 3:30 PM CDT May. 23, 2017 – National Weather Service

Severe Thunderstorm Watch 259 is in effect until 1100 PM CDT
for the following locations


TX
. Texas counties included are

Anderson Angelina Atascosa
Austin Bastrop Bell
Bexar blanco Brazos
Burleson Burnet Caldwell
Cherokee Colorado Comal
DeWitt falls Fayette
Fort Bend Freestone Gonzales
Grimes Guadalupe Harris
Hays Henderson Houston
Jackson Karnes Kendall
Lavaca Lee Leon
Liberty Limestone Madison
McLennan Milam Montgomery
Navarro Polk Robertson
San Jacinto Smith Travis
Trinity Walker Waller
Washington Wharton Williamson
Wilson Wood